Portada
METAR-TAF:

METAR-TAF

Aeroports :

Indore, Índia

latitud: 22-43N, longitud: 075-48E, altitud: 561 m

Observació

L'informe es va fer fa 30 minuts, a les 12:00 UTC
Vent 12 kt del Oest/Nord-Oest
Temperatura 41°C
Humitat 22%
Pressió 1007 hPa
Visibilitat: 7000 m

METAR: VAID 251200Z 29012KT 7000 NSC 41/15 Q1007 NOSIG

Hora: 18:00 (12:30 UTC)

Pronòstic

L'informe es va fer fa 1 hora i 30 minuts, a les 11:00 UTC
Pronòstic vàlid del 25 a les 12 UTC al 25 a les 21 UTC
Vent 12 kt del Oest
Visibilitat: 6000 m
Evolucionant progressivament
l' 25 a les 16 UTC al 25 a les 18 UTC
Vent 8 kt del Oest/Nord-Oest

TAF: VAID 251100Z 2512/2521 27012KT 6000 NSC BECMG 2516/2518 29008KT

Observacions i pronòstics meteorològics de més de 4000 aeroports (METAR i TAF).

Les estacions disponibles són els punts grocs i vermells al mapa.

Posi el ratolí al punt desitjat per veure el nom de l'estació.

Feu clic per veure les observacions i els pronòstics meteorològics.

Per canviar el mapa: feu clic els botons verds amb una creu de color negre per apropar; al botó verd amb un guió per allunyar la imatge; o en les fletxes verdes per a mapes adjacents.


METAR-TAF: